sensor_id;sensor_type;location;lat;lon;timestamp;pressure;altitude;pressure_sealevel;temperature;humidity
24762;BME280;12865;51.934;10.330;2023-09-30T00:01:41;99886.63;;;14.35;100.00
24762;BME280;12865;51.934;10.330;2023-09-30T00:04:06;99885.66;;;14.27;100.00
24762;BME280;12865;51.934;10.330;2023-09-30T00:06:32;99891.50;;;14.22;100.00
24762;BME280;12865;51.934;10.330;2023-09-30T00:08:57;99901.25;;;14.13;100.00
24762;BME280;12865;51.934;10.330;2023-09-30T00:11:23;99899.56;;;14.12;100.00
24762;BME280;12865;51.934;10.330;2023-09-30T00:13:48;99902.78;;;14.16;100.00
24762;BME280;12865;51.934;10.330;2023-09-30T00:16:14;99916.03;;;14.18;100.00
24762;BME280;12865;51.934;10.330;2023-09-30T00:18:42;99907.47;;;14.14;100.00
24762;BME280;12865;51.934;10.330;2023-09-30T00:21:07;99903.53;;;14.08;100.00
24762;BME280;12865;51.934;10.330;2023-09-30T00:23:33;99914.97;;;14.01;100.00
24762;BME280;12865;51.934;10.330;2023-09-30T00:25:58;99923.16;;;13.99;100.00
24762;BME280;12865;51.934;10.330;2023-09-30T00:28:25;99921.59;;;14.06;100.00
24762;BME280;12865;51.934;10.330;2023-09-30T00:30:50;99930.78;;;13.94;100.00
24762;BME280;12865;51.934;10.330;2023-09-30T00:33:16;99925.44;;;13.94;100.00
24762;BME280;12865;51.934;10.330;2023-09-30T00:35:41;99921.31;;;13.90;100.00
24762;BME280;12865;51.934;10.330;2023-09-30T00:38:06;99931.50;;;13.87;100.00
24762;BME280;12865;51.934;10.330;2023-09-30T00:40:32;99940.94;;;13.81;100.00
24762;BME280;12865;51.934;10.330;2023-09-30T00:42:58;99944.06;;;13.76;100.00
24762;BME280;12865;51.934;10.330;2023-09-30T00:45:23;99943.91;;;13.68;100.00
24762;BME280;12865;51.934;10.330;2023-09-30T00:47:48;99936.19;;;13.65;100.00
24762;BME280;12865;51.934;10.330;2023-09-30T00:50:14;99952.66;;;13.61;100.00
24762;BME280;12865;51.934;10.330;2023-09-30T00:52:40;99942.38;;;13.56;100.00
24762;BME280;12865;51.934;10.330;2023-09-30T00:55:06;99948.59;;;13.66;100.00
24762;BME280;12865;51.934;10.330;2023-09-30T00:57:33;99949.00;;;13.62;100.00
24762;BME280;12865;51.934;10.330;2023-09-30T00:59:59;99947.16;;;13.53;100.00
24762;BME280;12865;51.934;10.330;2023-09-30T01:02:26;99946.88;;;13.46;100.00
24762;BME280;12865;51.934;10.330;2023-09-30T01:04:52;99945.47;;;13.42;100.00
24762;BME280;12865;51.934;10.330;2023-09-30T01:07:18;99931.81;;;13.35;100.00
24762;BME280;12865;51.934;10.330;2023-09-30T01:09:47;99934.19;;;13.48;100.00
24762;BME280;12865;51.934;10.330;2023-09-30T01:12:12;99940.66;;;13.46;100.00
24762;BME280;12865;51.934;10.330;2023-09-30T01:14:37;99932.50;;;13.28;100.00
24762;BME280;12865;51.934;10.330;2023-09-30T01:17:03;99935.75;;;13.31;100.00
24762;BME280;12865;51.934;10.330;2023-09-30T01:19:29;99929.94;;;13.26;100.00
24762;BME280;12865;51.934;10.330;2023-09-30T01:21:58;99940.66;;;13.26;100.00
24762;BME280;12865;51.934;10.330;2023-09-30T01:24:30;99948.28;;;13.31;100.00
24762;BME280;12865;51.934;10.330;2023-09-30T01:26:57;99951.66;;;13.33;100.00
24762;BME280;12865;51.934;10.330;2023-09-30T01:29:22;99950.81;;;13.32;100.00
24762;BME280;12865;51.934;10.330;2023-09-30T01:31:48;99957.56;;;13.27;100.00
24762;BME280;12865;51.934;10.330;2023-09-30T01:34:15;99959.28;;;13.28;100.00
24762;BME280;12865;51.934;10.330;2023-09-30T01:36:44;99953.63;;;13.21;100.00
24762;BME280;12865;51.934;10.330;2023-09-30T01:39:10;99956.03;;;13.24;100.00
24762;BME280;12865;51.934;10.330;2023-09-30T01:41:37;99961.09;;;13.27;100.00
24762;BME280;12865;51.934;10.330;2023-09-30T01:44:02;99971.66;;;13.19;100.00
24762;BME280;12865;51.934;10.330;2023-09-30T01:46:28;99971.94;;;13.26;100.00
24762;BME280;12865;51.934;10.330;2023-09-30T01:48:53;99972.06;;;13.15;100.00
24762;BME280;12865;51.934;10.330;2023-09-30T01:51:18;99979.63;;;13.00;100.00
24762;BME280;12865;51.934;10.330;2023-09-30T01:53:44;99978.03;;;12.97;100.00
24762;BME280;12865;51.934;10.330;2023-09-30T01:56:09;99988.22;;;13.04;100.00
24762;BME280;12865;51.934;10.330;2023-09-30T01:58:34;99984.84;;;13.02;100.00
24762;BME280;12865;51.934;10.330;2023-09-30T02:01:03;99987.22;;;13.05;100.00
24762;BME280;12865;51.934;10.330;2023-09-30T02:03:29;99988.06;;;13.05;100.00
24762;BME280;12865;51.934;10.330;2023-09-30T02:05:56;99990.50;;;13.08;100.00
24762;BME280;12865;51.934;10.330;2023-09-30T02:08:22;99988.91;;;13.06;100.00
24762;BME280;12865;51.934;10.330;2023-09-30T02:10:47;99990.75;;;13.05;100.00
24762;BME280;12865;51.934;10.330;2023-09-30T02:13:13;99994.41;;;13.04;100.00
24762;BME280;12865;51.934;10.330;2023-09-30T02:15:41;99981.88;;;12.95;100.00
24762;BME280;12865;51.934;10.330;2023-09-30T02:18:06;99985.34;;;12.86;100.00
24762;BME280;12865;51.934;10.330;2023-09-30T02:20:32;99988.88;;;12.86;100.00
24762;BME280;12865;51.934;10.330;2023-09-30T02:22:57;99993.13;;;12.89;100.00
24762;BME280;12865;51.934;10.330;2023-09-30T02:25:24;99987.31;;;12.84;100.00
24762;BME280;12865;51.934;10.330;2023-09-30T02:27:50;100000.13;;;12.80;100.00
24762;BME280;12865;51.934;10.330;2023-09-30T02:30:15;99986.63;;;12.82;100.00
24762;BME280;12865;51.934;10.330;2023-09-30T02:32:42;99986.19;;;12.86;100.00
24762;BME280;12865;51.934;10.330;2023-09-30T02:35:08;99992.22;;;12.79;100.00
24762;BME280;12865;51.934;10.330;2023-09-30T02:37:36;99974.88;;;12.73;100.00
24762;BME280;12865;51.934;10.330;2023-09-30T02:40:06;99989.66;;;12.77;100.00
24762;BME280;12865;51.934;10.330;2023-09-30T02:42:38;99978.97;;;12.77;100.00
24762;BME280;12865;51.934;10.330;2023-09-30T02:45:05;99979.44;;;12.82;100.00
24762;BME280;12865;51.934;10.330;2023-09-30T02:47:31;99990.25;;;12.81;100.00
24762;BME280;12865;51.934;10.330;2023-09-30T02:49:57;99986.88;;;12.79;100.00
24762;BME280;12865;51.934;10.330;2023-09-30T02:52:26;99988.81;;;12.77;100.00
24762;BME280;12865;51.934;10.330;2023-09-30T02:54:54;99992.94;;;12.81;100.00
24762;BME280;12865;51.934;10.330;2023-09-30T02:57:19;99996.84;;;12.77;100.00
24762;BME280;12865;51.934;10.330;2023-09-30T02:59:45;100002.75;;;12.71;100.00
24762;BME280;12865;51.934;10.330;2023-09-30T03:02:10;99997.41;;;12.71;100.00
24762;BME280;12865;51.934;10.330;2023-09-30T03:04:40;99999.69;;;12.75;100.00
24762;BME280;12865;51.934;10.330;2023-09-30T03:07:06;99990.94;;;12.73;100.00
24762;BME280;12865;51.934;10.330;2023-09-30T03:09:32;99992.63;;;12.74;100.00
24762;BME280;12865;51.934;10.330;2023-09-30T03:11:57;99991.31;;;12.69;100.00
24762;BME280;12865;51.934;10.330;2023-09-30T03:14:24;99995.69;;;12.70;100.00
24762;BME280;12865;51.934;10.330;2023-09-30T03:16:50;99993.75;;;12.72;100.00
24762;BME280;12865;51.934;10.330;2023-09-30T03:19:15;99996.41;;;12.72;100.00
24762;BME280;12865;51.934;10.330;2023-09-30T03:21:42;99995.13;;;12.66;100.00
24762;BME280;12865;51.934;10.330;2023-09-30T03:24:07;99999.88;;;12.63;100.00
24762;BME280;12865;51.934;10.330;2023-09-30T03:26:34;99999.75;;;12.64;100.00
24762;BME280;12865;51.934;10.330;2023-09-30T03:28:59;100004.97;;;12.66;100.00
24762;BME280;12865;51.934;10.330;2023-09-30T03:31:25;100004.84;;;12.67;100.00
24762;BME280;12865;51.934;10.330;2023-09-30T03:33:50;100008.88;;;12.62;100.00
24762;BME280;12865;51.934;10.330;2023-09-30T03:36:22;99997.63;;;12.58;100.00
24762;BME280;12865;51.934;10.330;2023-09-30T03:38:51;99997.50;;;12.59;100.00
24762;BME280;12865;51.934;10.330;2023-09-30T03:41:20;100005.53;;;12.59;100.00
24762;BME280;12865;51.934;10.330;2023-09-30T03:43:46;100006.69;;;12.67;100.00
24762;BME280;12865;51.934;10.330;2023-09-30T03:46:12;100013.97;;;12.65;100.00
24762;BME280;12865;51.934;10.330;2023-09-30T03:48:38;100018.47;;;12.64;100.00
24762;BME280;12865;51.934;10.330;2023-09-30T03:51:11;100017.31;;;12.57;100.00
24762;BME280;12865;51.934;10.330;2023-09-30T03:53:42;100008.25;;;12.48;100.00
24762;BME280;12865;51.934;10.330;2023-09-30T03:56:08;100013.03;;;12.45;100.00
24762;BME280;12865;51.934;10.330;2023-09-30T03:58:33;100017.47;;;12.35;100.00
24762;BME280;12865;51.934;10.330;2023-09-30T04:00:59;100015.28;;;12.40;100.00
24762;BME280;12865;51.934;10.330;2023-09-30T04:03:26;100007.63;;;12.35;100.00
24762;BME280;12865;51.934;10.330;2023-09-30T04:05:52;99992.84;;;12.31;100.00
24762;BME280;12865;51.934;10.330;2023-09-30T04:08:18;99990.59;;;12.36;100.00
24762;BME280;12865;51.934;10.330;2023-09-30T04:10:43;99994.13;;;12.37;100.00
24762;BME280;12865;51.934;10.330;2023-09-30T04:13:09;100000.31;;;12.37;100.00
24762;BME280;12865;51.934;10.330;2023-09-30T04:15:34;100001.06;;;12.39;100.00
24762;BME280;12865;51.934;10.330;2023-09-30T04:18:00;99990.47;;;12.38;100.00
24762;BME280;12865;51.934;10.330;2023-09-30T04:20:26;99988.22;;;12.33;100.00
24762;BME280;12865;51.934;10.330;2023-09-30T04:22:52;99998.50;;;12.38;100.00
24762;BME280;12865;51.934;10.330;2023-09-30T04:25:22;100021.28;;;12.32;100.00
24762;BME280;12865;51.934;10.330;2023-09-30T04:27:50;100017.75;;;12.32;100.00
24762;BME280;12865;51.934;10.330;2023-09-30T04:30:15;100015.06;;;12.32;100.00
24762;BME280;12865;51.934;10.330;2023-09-30T04:32:41;100015.31;;;12.29;100.00
24762;BME280;12865;51.934;10.330;2023-09-30T04:35:07;100010.72;;;12.31;100.00
24762;BME280;12865;51.934;10.330;2023-09-30T04:37:36;100014.09;;;12.33;100.00
24762;BME280;12865;51.934;10.330;2023-09-30T04:40:06;100018.97;;;12.28;100.00
24762;BME280;12865;51.934;10.330;2023-09-30T04:42:34;100016.50;;;12.15;100.00
24762;BME280;12865;51.934;10.330;2023-09-30T04:45:03;100030.06;;;12.23;100.00
24762;BME280;12865;51.934;10.330;2023-09-30T04:47:28;100026.66;;;12.21;100.00
24762;BME280;12865;51.934;10.330;2023-09-30T04:49:54;100026.22;;;12.16;100.00
24762;BME280;12865;51.934;10.330;2023-09-30T04:52:19;100024.28;;;12.18;100.00
24762;BME280;12865;51.934;10.330;2023-09-30T04:54:45;100030.78;;;12.25;100.00
24762;BME280;12865;51.934;10.330;2023-09-30T04:57:11;100028.16;;;12.35;100.00
24762;BME280;12865;51.934;10.330;2023-09-30T04:59:36;100033.72;;;12.22;100.00
24762;BME280;12865;51.934;10.330;2023-09-30T05:02:02;100031.50;;;12.27;100.00
24762;BME280;12865;51.934;10.330;2023-09-30T05:04:28;100041.34;;;12.27;100.00
24762;BME280;12865;51.934;10.330;2023-09-30T05:06:55;100043.03;;;12.28;100.00
24762;BME280;12865;51.934;10.330;2023-09-30T05:09:20;100042.34;;;12.26;100.00
24762;BME280;12865;51.934;10.330;2023-09-30T05:11:46;100051.00;;;12.39;100.00
24762;BME280;12865;51.934;10.330;2023-09-30T05:14:11;100049.44;;;12.36;100.00
24762;BME280;12865;51.934;10.330;2023-09-30T05:16:37;100048.66;;;12.45;100.00
24762;BME280;12865;51.934;10.330;2023-09-30T05:19:02;100041.72;;;12.43;100.00
24762;BME280;12865;51.934;10.330;2023-09-30T05:21:29;100055.84;;;12.45;100.00
24762;BME280;12865;51.934;10.330;2023-09-30T05:23:55;100063.00;;;12.44;100.00
24762;BME280;12865;51.934;10.330;2023-09-30T05:26:21;100058.50;;;12.45;100.00
24762;BME280;12865;51.934;10.330;2023-09-30T05:28:47;100063.44;;;12.49;100.00
24762;BME280;12865;51.934;10.330;2023-09-30T05:31:12;100057.53;;;12.46;100.00
24762;BME280;12865;51.934;10.330;2023-09-30T05:33:37;100061.63;;;12.50;100.00
24762;BME280;12865;51.934;10.330;2023-09-30T05:36:03;100059.41;;;12.34;100.00
24762;BME280;12865;51.934;10.330;2023-09-30T05:38:29;100058.19;;;12.38;100.00
24762;BME280;12865;51.934;10.330;2023-09-30T05:40:56;100060.84;;;12.38;100.00
24762;BME280;12865;51.934;10.330;2023-09-30T05:43:24;100069.44;;;12.21;100.00
24762;BME280;12865;51.934;10.330;2023-09-30T05:45:49;100073.38;;;12.17;100.00
24762;BME280;12865;51.934;10.330;2023-09-30T05:48:16;100073.03;;;12.10;100.00
24762;BME280;12865;51.934;10.330;2023-09-30T05:50:42;100075.31;;;12.15;100.00
24762;BME280;12865;51.934;10.330;2023-09-30T05:53:08;100069.13;;;12.14;100.00
24762;BME280;12865;51.934;10.330;2023-09-30T05:55:36;100069.72;;;12.18;100.00
24762;BME280;12865;51.934;10.330;2023-09-30T05:58:02;100065.69;;;12.24;100.00
24762;BME280;12865;51.934;10.330;2023-09-30T06:00:27;100073.09;;;12.20;100.00
24762;BME280;12865;51.934;10.330;2023-09-30T06:02:57;100068.47;;;12.22;100.00
24762;BME280;12865;51.934;10.330;2023-09-30T06:05:22;100063.84;;;12.24;100.00
24762;BME280;12865;51.934;10.330;2023-09-30T06:07:49;100063.88;;;12.13;100.00
24762;BME280;12865;51.934;10.330;2023-09-30T06:10:14;100059.47;;;12.23;100.00
24762;BME280;12865;51.934;10.330;2023-09-30T06:12:46;100060.34;;;12.24;100.00
24762;BME280;12865;51.934;10.330;2023-09-30T06:15:16;100059.56;;;12.33;100.00
24762;BME280;12865;51.934;10.330;2023-09-30T06:17:47;100056.03;;;12.32;100.00
24762;BME280;12865;51.934;10.330;2023-09-30T06:20:12;100061.59;;;12.40;100.00
24762;BME280;12865;51.934;10.330;2023-09-30T06:22:43;100080.31;;;12.40;100.00
24762;BME280;12865;51.934;10.330;2023-09-30T06:25:11;100073.69;;;12.44;100.00
24762;BME280;12865;51.934;10.330;2023-09-30T06:27:37;100082.13;;;12.61;100.00
24762;BME280;12865;51.934;10.330;2023-09-30T06:30:03;100083.34;;;12.56;100.00
24762;BME280;12865;51.934;10.330;2023-09-30T06:32:30;100091.97;;;12.60;100.00
24762;BME280;12865;51.934;10.330;2023-09-30T06:34:56;100103.53;;;12.61;100.00
24762;BME280;12865;51.934;10.330;2023-09-30T06:37:21;100108.91;;;12.70;100.00
24762;BME280;12865;51.934;10.330;2023-09-30T06:39:47;100118.25;;;12.76;100.00
24762;BME280;12865;51.934;10.330;2023-09-30T06:42:13;100121.59;;;12.89;100.00
24762;BME280;12865;51.934;10.330;2023-09-30T06:44:38;100115.94;;;12.92;100.00
24762;BME280;12865;51.934;10.330;2023-09-30T06:47:03;100114.56;;;12.97;100.00
24762;BME280;12865;51.934;10.330;2023-09-30T06:49:29;100132.31;;;12.98;100.00
24762;BME280;12865;51.934;10.330;2023-09-30T06:51:55;100147.09;;;13.14;100.00
24762;BME280;12865;51.934;10.330;2023-09-30T06:54:21;100136.81;;;13.19;100.00
24762;BME280;12865;51.934;10.330;2023-09-30T06:56:46;100139.13;;;13.23;100.00
24762;BME280;12865;51.934;10.330;2023-09-30T06:59:11;100143.09;;;13.29;100.00
24762;BME280;12865;51.934;10.330;2023-09-30T07:01:37;100151.00;;;13.30;100.00
24762;BME280;12865;51.934;10.330;2023-09-30T07:04:02;100138.28;;;13.32;100.00
24762;BME280;12865;51.934;10.330;2023-09-30T07:06:28;100125.19;;;13.39;100.00
24762;BME280;12865;51.934;10.330;2023-09-30T07:08:53;100123.38;;;13.40;100.00
24762;BME280;12865;51.934;10.330;2023-09-30T07:11:29;100124.41;;;13.48;100.00
24762;BME280;12865;51.934;10.330;2023-09-30T07:13:56;100133.28;;;13.49;100.00
24762;BME280;12865;51.934;10.330;2023-09-30T07:16:21;100140.38;;;13.59;100.00
24762;BME280;12865;51.934;10.330;2023-09-30T07:18:46;100148.44;;;13.69;100.00
24762;BME280;12865;51.934;10.330;2023-09-30T07:21:13;100149.63;;;13.95;100.00
24762;BME280;12865;51.934;10.330;2023-09-30T07:23:38;100153.19;;;14.05;100.00
24762;BME280;12865;51.934;10.330;2023-09-30T07:26:04;100150.06;;;14.00;100.00
24762;BME280;12865;51.934;10.330;2023-09-30T07:28:29;100149.50;;;14.16;100.00
24762;BME280;12865;51.934;10.330;2023-09-30T07:30:55;100149.53;;;14.35;100.00
24762;BME280;12865;51.934;10.330;2023-09-30T07:33:20;100151.13;;;14.47;100.00
24762;BME280;12865;51.934;10.330;2023-09-30T07:35:46;100163.13;;;14.63;100.00
24762;BME280;12865;51.934;10.330;2023-09-30T07:38:11;100172.13;;;14.81;100.00
24762;BME280;12865;51.934;10.330;2023-09-30T07:40:37;100165.75;;;14.91;100.00
24762;BME280;12865;51.934;10.330;2023-09-30T07:43:02;100153.13;;;15.11;100.00
24762;BME280;12865;51.934;10.330;2023-09-30T07:45:27;100158.63;;;15.19;100.00
24762;BME280;12865;51.934;10.330;2023-09-30T07:47:53;100170.59;;;15.35;100.00
24762;BME280;12865;51.934;10.330;2023-09-30T07:50:18;100169.84;;;15.42;100.00
24762;BME280;12865;51.934;10.330;2023-09-30T07:52:44;100155.41;;;15.53;100.00
24762;BME280;12865;51.934;10.330;2023-09-30T07:55:10;100164.53;;;15.69;100.00
24762;BME280;12865;51.934;10.330;2023-09-30T07:57:36;100164.19;;;15.82;100.00
24762;BME280;12865;51.934;10.330;2023-09-30T08:00:02;100169.47;;;15.74;100.00
24762;BME280;12865;51.934;10.330;2023-09-30T08:02:33;100172.09;;;15.84;100.00
24762;BME280;12865;51.934;10.330;2023-09-30T08:04:59;100174.97;;;16.00;100.00
24762;BME280;12865;51.934;10.330;2023-09-30T08:07:25;100178.22;;;16.03;100.00
24762;BME280;12865;51.934;10.330;2023-09-30T08:09:51;100171.91;;;16.13;100.00
24762;BME280;12865;51.934;10.330;2023-09-30T08:12:16;100175.44;;;16.13;100.00
24762;BME280;12865;51.934;10.330;2023-09-30T08:14:41;100180.16;;;16.29;100.00
24762;BME280;12865;51.934;10.330;2023-09-30T08:17:09;100179.69;;;16.33;100.00
24762;BME280;12865;51.934;10.330;2023-09-30T08:19:35;100177.00;;;16.51;100.00
24762;BME280;12865;51.934;10.330;2023-09-30T08:22:01;100179.94;;;16.58;100.00
24762;BME280;12865;51.934;10.330;2023-09-30T08:24:28;100180.06;;;16.56;100.00
24762;BME280;12865;51.934;10.330;2023-09-30T08:26:54;100182.16;;;16.44;100.00
24762;BME280;12865;51.934;10.330;2023-09-30T08:29:20;100181.69;;;16.49;100.00
24762;BME280;12865;51.934;10.330;2023-09-30T08:31:46;100184.00;;;16.62;100.00
24762;BME280;12865;51.934;10.330;2023-09-30T08:34:12;100186.69;;;16.44;100.00
24762;BME280;12865;51.934;10.330;2023-09-30T08:36:39;100185.03;;;16.61;100.00
24762;BME280;12865;51.934;10.330;2023-09-30T08:39:05;100188.56;;;16.79;100.00
24762;BME280;12865;51.934;10.330;2023-09-30T08:41:32;100193.25;;;16.77;100.00
24762;BME280;12865;51.934;10.330;2023-09-30T08:44:00;100188.47;;;16.71;100.00
24762;BME280;12865;51.934;10.330;2023-09-30T08:46:32;100196.84;;;16.85;100.00
24762;BME280;12865;51.934;10.330;2023-09-30T08:49:02;100193.38;;;16.58;100.00
24762;BME280;12865;51.934;10.330;2023-09-30T08:51:29;100195.94;;;16.77;100.00
24762;BME280;12865;51.934;10.330;2023-09-30T08:53:56;100195.28;;;16.75;100.00
24762;BME280;12865;51.934;10.330;2023-09-30T08:56:30;100205.28;;;17.08;100.00
24762;BME280;12865;51.934;10.330;2023-09-30T08:58:57;100207.44;;;17.05;100.00
24762;BME280;12865;51.934;10.330;2023-09-30T09:01:27;100207.28;;;17.06;100.00
24762;BME280;12865;51.934;10.330;2023-09-30T09:03:53;100203.66;;;17.15;100.00
24762;BME280;12865;51.934;10.330;2023-09-30T09:06:20;100206.56;;;17.22;100.00
24762;BME280;12865;51.934;10.330;2023-09-30T09:08:46;100212.16;;;17.28;100.00
24762;BME280;12865;51.934;10.330;2023-09-30T09:11:12;100213.91;;;17.12;99.29
24762;BME280;12865;51.934;10.330;2023-09-30T09:13:53;100216.13;;;17.42;98.26
24762;BME280;12865;51.934;10.330;2023-09-30T09:16:22;100222.00;;;17.38;97.73
24762;BME280;12865;51.934;10.330;2023-09-30T09:18:48;100220.69;;;17.42;97.51
24762;BME280;12865;51.934;10.330;2023-09-30T09:21:16;100221.00;;;17.64;98.45
24762;BME280;12865;51.934;10.330;2023-09-30T09:23:47;100226.84;;;17.86;96.13
24762;BME280;12865;51.934;10.330;2023-09-30T09:26:29;100223.81;;;17.89;95.31
24762;BME280;12865;51.934;10.330;2023-09-30T09:28:59;100228.94;;;18.00;94.87
24762;BME280;12865;51.934;10.330;2023-09-30T09:31:27;100229.66;;;17.76;94.64
24762;BME280;12865;51.934;10.330;2023-09-30T09:33:52;100228.13;;;17.48;97.38
24762;BME280;12865;51.934;10.330;2023-09-30T09:36:19;100231.56;;;17.58;95.46
24762;BME280;12865;51.934;10.330;2023-09-30T09:38:48;100229.25;;;17.37;96.13
24762;BME280;12865;51.934;10.330;2023-09-30T09:41:16;100225.28;;;17.23;96.63
24762;BME280;12865;51.934;10.330;2023-09-30T09:43:42;100216.50;;;17.47;98.58
24762;BME280;12865;51.934;10.330;2023-09-30T09:46:09;100216.78;;;17.62;96.10
24762;BME280;12865;51.934;10.330;2023-09-30T09:48:36;100219.72;;;17.77;95.81
24762;BME280;12865;51.934;10.330;2023-09-30T09:51:02;100221.16;;;17.63;95.11
24762;BME280;12865;51.934;10.330;2023-09-30T09:53:34;100222.94;;;17.28;96.84
24762;BME280;12865;51.934;10.330;2023-09-30T09:56:02;100227.47;;;17.72;94.65
24762;BME280;12865;51.934;10.330;2023-09-30T09:58:32;100218.50;;;18.05;92.70
24762;BME280;12865;51.934;10.330;2023-09-30T10:01:00;100227.75;;;18.02;92.66
24762;BME280;12865;51.934;10.330;2023-09-30T10:03:26;100224.19;;;18.02;93.12
24762;BME280;12865;51.934;10.330;2023-09-30T10:05:52;100221.03;;;18.07;92.07
24762;BME280;12865;51.934;10.330;2023-09-30T10:08:20;100214.81;;;17.80;90.73
24762;BME280;12865;51.934;10.330;2023-09-30T10:10:47;100214.81;;;18.14;91.91
24762;BME280;12865;51.934;10.330;2023-09-30T10:19:12;100222.69;;;18.58;89.13
24762;BME280;12865;51.934;10.330;2023-09-30T10:21:38;100218.91;;;18.34;91.36
24762;BME280;12865;51.934;10.330;2023-09-30T10:29:58;100220.75;;;18.26;87.89
24762;BME280;12865;51.934;10.330;2023-09-30T10:40:50;100215.75;;;18.47;80.69
24762;BME280;12865;51.934;10.330;2023-09-30T10:43:35;100215.81;;;18.88;82.22
24762;BME280;12865;51.934;10.330;2023-09-30T10:46:02;100212.09;;;18.89;78.95
24762;BME280;12865;51.934;10.330;2023-09-30T10:51:13;100211.94;;;18.98;79.82
24762;BME280;12865;51.934;10.330;2023-09-30T10:53:47;100214.78;;;19.05;79.71
24762;BME280;12865;51.934;10.330;2023-09-30T10:56:14;100219.00;;;19.32;78.93
24762;BME280;12865;51.934;10.330;2023-09-30T11:01:09;100215.44;;;18.58;80.44
24762;BME280;12865;51.934;10.330;2023-09-30T11:03:35;100210.34;;;18.55;83.98
24762;BME280;12865;51.934;10.330;2023-09-30T11:06:02;100227.78;;;18.93;80.44
24762;BME280;12865;51.934;10.330;2023-09-30T11:08:29;100226.28;;;18.91;79.83
24762;BME280;12865;51.934;10.330;2023-09-30T11:10:55;100220.69;;;19.33;84.20
24762;BME280;12865;51.934;10.330;2023-09-30T11:13:22;100204.94;;;19.52;82.17
24762;BME280;12865;51.934;10.330;2023-09-30T11:15:59;100201.38;;;19.44;78.29
24762;BME280;12865;51.934;10.330;2023-09-30T11:18:25;100201.06;;;19.55;78.67
24762;BME280;12865;51.934;10.330;2023-09-30T11:21:03;100198.81;;;19.67;79.61
24762;BME280;12865;51.934;10.330;2023-09-30T11:23:30;100216.63;;;19.92;78.45
24762;BME280;12865;51.934;10.330;2023-09-30T11:25:56;100213.22;;;19.98;77.91
24762;BME280;12865;51.934;10.330;2023-09-30T11:28:22;100210.94;;;19.79;76.62
24762;BME280;12865;51.934;10.330;2023-09-30T11:31:01;100210.94;;;19.79;76.31
24762;BME280;12865;51.934;10.330;2023-09-30T11:33:31;100211.19;;;20.00;76.83
24762;BME280;12865;51.934;10.330;2023-09-30T11:36:03;100201.94;;;20.25;75.86
24762;BME280;12865;51.934;10.330;2023-09-30T11:38:31;100202.00;;;20.71;75.25
24762;BME280;12865;51.934;10.330;2023-09-30T11:41:03;100198.94;;;20.74;72.45
24762;BME280;12865;51.934;10.330;2023-09-30T11:43:34;100197.31;;;20.88;71.19
24762;BME280;12865;51.934;10.330;2023-09-30T11:48:37;100185.59;;;20.42;69.20
24762;BME280;12865;51.934;10.330;2023-09-30T11:51:03;100183.41;;;20.45;73.10
24762;BME280;12865;51.934;10.330;2023-09-30T11:53:35;100184.66;;;20.26;72.93
24762;BME280;12865;51.934;10.330;2023-09-30T11:56:01;100182.97;;;19.94;74.66
24762;BME280;12865;51.934;10.330;2023-09-30T11:58:28;100183.94;;;19.63;77.81
24762;BME280;12865;51.934;10.330;2023-09-30T12:00:54;100181.34;;;19.77;76.54
24762;BME280;12865;51.934;10.330;2023-09-30T12:03:20;100175.03;;;19.93;74.70
24762;BME280;12865;51.934;10.330;2023-09-30T12:05:47;100167.47;;;19.80;76.91
24762;BME280;12865;51.934;10.330;2023-09-30T12:08:13;100174.88;;;19.39;77.73
24762;BME280;12865;51.934;10.330;2023-09-30T12:10:39;100181.59;;;19.35;78.45
24762;BME280;12865;51.934;10.330;2023-09-30T12:13:05;100175.34;;;19.43;74.98
24762;BME280;12865;51.934;10.330;2023-09-30T12:15:30;100177.69;;;19.62;78.95
24762;BME280;12865;51.934;10.330;2023-09-30T12:17:56;100185.13;;;19.60;79.26
24762;BME280;12865;51.934;10.330;2023-09-30T12:20:21;100186.50;;;19.56;77.81
24762;BME280;12865;51.934;10.330;2023-09-30T12:22:47;100180.44;;;19.93;78.47
24762;BME280;12865;51.934;10.330;2023-09-30T12:25:12;100172.09;;;20.03;75.86
24762;BME280;12865;51.934;10.330;2023-09-30T12:27:38;100180.66;;;20.14;75.17
24762;BME280;12865;51.934;10.330;2023-09-30T12:30:05;100183.00;;;20.25;70.48
24762;BME280;12865;51.934;10.330;2023-09-30T12:32:32;100184.50;;;19.97;74.14
24762;BME280;12865;51.934;10.330;2023-09-30T12:34:57;100181.41;;;20.31;72.80
24762;BME280;12865;51.934;10.330;2023-09-30T12:37:22;100172.53;;;20.14;69.41
24762;BME280;12865;51.934;10.330;2023-09-30T12:39:47;100163.59;;;20.45;72.54
24762;BME280;12865;51.934;10.330;2023-09-30T12:42:13;100167.00;;;20.61;63.50
24762;BME280;12865;51.934;10.330;2023-09-30T12:44:39;100174.00;;;20.56;66.06
24762;BME280;12865;51.934;10.330;2023-09-30T12:47:05;100167.66;;;20.86;62.29
24762;BME280;12865;51.934;10.330;2023-09-30T12:49:31;100168.19;;;20.82;56.93
24762;BME280;12865;51.934;10.330;2023-09-30T12:51:56;100165.88;;;21.16;62.01
24762;BME280;12865;51.934;10.330;2023-09-30T12:54:26;100164.88;;;20.94;63.06
24762;BME280;12865;51.934;10.330;2023-09-30T12:56:52;100157.97;;;21.06;62.55
24762;BME280;12865;51.934;10.330;2023-09-30T12:59:17;100154.91;;;20.72;64.29
24762;BME280;12865;51.934;10.330;2023-09-30T13:01:43;100156.84;;;21.01;63.84